Impacts TAF Board
For situational awareness. Not to be used for flight planning purposes.
IDs:

KDTW - Detroit Metro/Wayne, MI, US

Issued at 0300 UTC 20 Mar 2019
Updated at 0354 UTC 20 Mar 2019
Potential Impact None Slight Moderate High
Time0253Z 20/04Z 20/05Z 20/06Z 20/07Z 20/08Z 20/09Z 20/10Z 20/11Z 20/12Z 20/13Z 20/14Z 20/15Z 20/16Z>>
Type OBS PRVL PRVL PRVL PRVL PRVL PRVL PRVL PRVL PRVL PRVL PRVL PRVL PRVL
VIS 10 >6 >6 >6 >6 >6 >6 >6 >6 >6 >6 >6 >6 >6
CIG -- -- -- -- -- -- -- -- -- -- -- -- 100 100
Cover FEW SCT SCT SCT SCT SCT SCT SCT SCT SCT SCT SCT OVC OVC
FltCat VFR VFR VFR VFR VFR VFR VFR VFR VFR VFR VFR VFR VFR VFR
WX -- -- -- -- -- -- -- -- -- -- -- -- -- --
WDir 200 190 190 190 190 190 190 190 190 190 190 190 180 180
WSpd 7 4 4 4 4 4 4 4 4 4 4 4 10 10
WGst -- -- -- -- -- -- -- -- -- -- -- -- -- --
Raw TAF
KDTW 200300Z 2003/2106 19004KT P6SM SCT250
  FM201500 18010KT P6SM SCT050 OVC100
  FM202000 19011G20KT 6SM -RA SCT028 OVC040
  FM202300 19010G19KT 4SM -RA BR SCT018 OVC028
  FM210400 22007KT 5SM -RA BR OVC015


Raw METAR
KDTW 200253Z 20007KT 10SM FEW160 02/M04 A3031 RMK AO2 SLP268 T00221039 58004
KDTW 200153Z 20007KT 10SM FEW160 03/M04 A3031 RMK AO2 SLP270 T00281039
KDTW 200053Z 20008KT 10SM FEW160 05/M04 A3031 RMK AO2 SLP271 T00501039

METAR Board
Radar Display
Forecast Discussion
For situational awareness. Not to be used for flight planning purposes.